Capt. Pete — WDH7978 — position and weather

sailwx.info

Track history (hours):
 
Tides and Currents Weather Stations Pressure Air Temp Water Temp Dewpoint Dewpoint Depression Visibility Wind Speed Wind Dir Waves Ship Positions

Capt. Pete

Owner: Higman Barge Lines, Inc., Orange, TX. More information available from US FCC via Universal Licensing System and Coast Guard Vessel Documentation Center.

Last reported at 2017-Sep-14 18:50 UTC. Time now 2017-Sep-24 19:26 UTC.
Position N 29°29' W 094°52'.
Warning: this ship's position is 10 days out of date.

Length 24 m; draft 2.7 m.

Type: Towing. MMSI: 367653470.

Date/timePositionNaut miles runAvg speedWind from/ knotsBaromVisibWave heightAir tempDewpointWater temp
2017-Sep-14 18:50N 29°29' W 094°52'2 6.2
2017-Sep-14 18:30N 29°31' W 094°53'3 6.0
2017-Sep-14 18:00N 29°33' W 094°55'3 5.9
2017-Sep-14 17:31N 29°36' W 094°57'3 6.2
2017-Sep-14 17:00N 29°39' W 094°58'3 6.4
2017-Sep-14 16:30N 29°42' W 094°59'4 5.4
2017-Sep-14 15:50N 29°44' W 095°03'3 5.4
2017-Sep-14 15:18N 29°46' W 095°05'0 0.0
2017-Sep-13 13:54N 29°45' W 095°06'1 2.2
2017-Sep-13 13:22N 29°46' W 095°05'0 0.1
2017-Sep-13 12:47N 29°46' W 095°05'0 0.0
2017-Sep-13 12:26N 29°46' W 095°05'0 0.0
2017-Sep-13 11:53N 29°46' W 095°05'0 0.0
2017-Sep-13 09:20N 29°46' W 095°05'0 0.0
2017-Sep-13 08:59N 29°46' W 095°05'0 0.0
2017-Sep-13 08:26N 29°46' W 095°05'0 0.0
2017-Sep-13 07:59N 29°46' W 095°05'0 0.0
2017-Sep-13 07:29N 29°46' W 095°05'0 0.0
2017-Sep-13 05:53N 29°46' W 095°05'0 0.0
2017-Sep-13 05:23N 29°46' W 095°05'0 0.0
2017-Sep-13 04:59N 29°46' W 095°05'0 0.0
2017-Sep-13 04:20N 29°46' W 095°05'0 0.0
2017-Sep-13 03:53N 29°46' W 095°05'0 0.0
2017-Sep-13 03:26N 29°46' W 095°05'0 0.0
2017-Sep-13 02:56N 29°46' W 095°05'0 0.0
2017-Sep-13 02:23N 29°46' W 095°05'0 0.0
2017-Sep-13 01:53N 29°46' W 095°05'0 0.0
2017-Sep-13 01:26N 29°46' W 095°05'0 0.0
2017-Sep-13 00:56N 29°46' W 095°05'0 0.0
2017-Sep-13 00:26N 29°46' W 095°05'0 0.0
2017-Sep-12 23:59N 29°46' W 095°05'0 0.0
2017-Sep-12 18:17N 29°46' W 095°05'0 0.0
2017-Sep-12 14:05N 29°46' W 095°05'0 0.0
2017-Sep-12 13:50N 29°46' W 095°05'0 0.0
2017-Sep-12 13:29N 29°46' W 095°05'0 0.0
2017-Sep-12 13:00N 29°46' W 095°05'0 0.0
2017-Sep-12 12:30N 29°46' W 095°05'0 0.0
2017-Sep-12 12:00N 29°46' W 095°05'0 0.0
2017-Sep-12 11:30N 29°46' W 095°05'0 0.0
2017-Sep-12 10:59N 29°46' W 095°05'2 3.9
2017-Sep-12 10:28N 29°45' W 095°06'3 6.0
2017-Sep-12 10:00N 29°44' W 095°09'4 5.5
2017-Sep-12 09:21N 29°44' W 095°13'0 0.3
2017-Sep-12 08:48N 29°44' W 095°13'2 0.1
2017-Sep-10 22:05N 29°45' W 095°11'1 4.7
2017-Sep-10 21:52N 29°45' W 095°10'2 4.2
2017-Sep-10 21:18N 29°44' W 095°07'1 4.7
2017-Sep-10 21:00N 29°45' W 095°06'2 3.7
2017-Sep-10 20:29N 29°46' W 095°05'1 1.4
2017-Sep-10 19:51N 29°47' W 095°05'1 1.3
2017-Sep-10 19:00N 29°47' W 095°06'1 2.2
2017-Sep-10 18:28N 29°47' W 095°04'3 6.3
2017-Sep-10 17:59N 29°45' W 095°06'0 0.1
2017-Sep-10 17:25N 29°45' W 095°07'0 0.0
2017-Sep-10 16:55N 29°45' W 095°07'0 0.0
2017-Sep-10 16:28N 29°45' W 095°07'0 0.0
2017-Sep-10 15:58N 29°45' W 095°07'0 0.0
2017-Sep-10 15:28N 29°45' W 095°07'0 0.0
2017-Sep-10 14:58N 29°45' W 095°07'3 0.1
2017-Sep-09 00:04N 29°47' W 095°06'0 4.7
2017-Sep-09 00:00N 29°47' W 095°05'1 2.7
2017-Sep-08 23:30N 29°46' W 095°05'4 5.6
2017-Sep-08 22:53N 29°44' W 095°09'1 2.4
2017-Sep-08 22:29N 29°44' W 095°10'0 0.0
2017-Sep-08 21:30N 29°44' W 095°10'3 5.8
2017-Sep-08 21:00N 29°45' W 095°06'3 5.5
2017-Sep-08 20:29N 29°47' W 095°05'1 0.7
2017-Sep-08 18:54N 29°47' W 095°06'1 1.8
2017-Sep-08 18:18N 29°47' W 095°05'2 1.1
2017-Sep-08 16:46N 29°45' W 095°06'2 0.1
2017-Sep-07 19:25N 29°47' W 095°06'1 2.0
2017-Sep-07 18:44N 29°46' W 095°05'2 7.4
2017-Sep-07 18:29N 29°45' W 095°06'3 5.8
2017-Sep-07 18:00N 29°44' W 095°10'0 0.1
2017-Sep-07 17:31N 29°45' W 095°10'2 2.7
2017-Sep-07 16:55N 29°44' W 095°08'1 3.0
2017-Sep-07 16:29N 29°45' W 095°06'3 0.1
2017-Sep-06 00:08N 29°47' W 095°06'1 4.9
2017-Sep-05 23:59N 29°47' W 095°05'1 1.1
2017-Sep-05 23:29N 29°47' W 095°04'3 6.2
2017-Sep-05 22:59N 29°45' W 095°06'0 0.0
2017-Sep-05 21:11N 29°45' W 095°06'0 2.1
2017-Sep-05 21:00N 29°45' W 095°06'0 0.0
2017-Sep-05 15:14N 29°44' W 095°07'1 5.2
2017-Sep-05 14:58N 29°44' W 095°08'1 1.1
2017-Sep-05 13:35N 29°45' W 095°07'0 0.0
2017-Sep-05 13:14N 29°45' W 095°07'0 0.1
2017-Sep-05 12:59N 29°45' W 095°06'1 2.4
2017-Sep-05 12:29N 29°45' W 095°06'  
Track history (hours):
 
Tides and Currents Weather Stations Pressure Air Temp Water Temp Dewpoint Dewpoint Depression Visibility Wind Speed Wind Dir Waves Ship Positions

Capt. Pete

Owner: Higman Barge Lines, Inc., Orange, TX. More information available from US FCC via Universal Licensing System and Coast Guard Vessel Documentation Center.

Last reported at 2017-Sep-14 18:50 UTC. Time now 2017-Sep-24 19:26 UTC.
Position N 29°29' W 094°52'.
Warning: this ship's position is 10 days out of date.

Length 24 m; draft 2.7 m.

Type: Towing. MMSI: 367653470.

Date/timePositionNaut miles runAvg speedWind from/ knotsBaromVisibWave heightAir tempDewpointWater temp
2017-Sep-14 18:50N 29°29' W 094°52'2 6.2
2017-Sep-14 18:30N 29°31' W 094°53'3 6.0
2017-Sep-14 18:00N 29°33' W 094°55'3 5.9
2017-Sep-14 17:31N 29°36' W 094°57'3 6.2
2017-Sep-14 17:00N 29°39' W 094°58'3 6.4
2017-Sep-14 16:30N 29°42' W 094°59'4 5.4
2017-Sep-14 15:50N 29°44' W 095°03'3 5.4
2017-Sep-14 15:18N 29°46' W 095°05'0 0.0
2017-Sep-13 13:54N 29°45' W 095°06'1 2.2
2017-Sep-13 13:22N 29°46' W 095°05'0 0.1
2017-Sep-13 12:47N 29°46' W 095°05'0 0.0
2017-Sep-13 12:26N 29°46' W 095°05'0 0.0
2017-Sep-13 11:53N 29°46' W 095°05'0 0.0
2017-Sep-13 09:20N 29°46' W 095°05'0 0.0
2017-Sep-13 08:59N 29°46' W 095°05'0 0.0
2017-Sep-13 08:26N 29°46' W 095°05'0 0.0
2017-Sep-13 07:59N 29°46' W 095°05'0 0.0
2017-Sep-13 07:29N 29°46' W 095°05'0 0.0
2017-Sep-13 05:53N 29°46' W 095°05'0 0.0
2017-Sep-13 05:23N 29°46' W 095°05'0 0.0
2017-Sep-13 04:59N 29°46' W 095°05'0 0.0
2017-Sep-13 04:20N 29°46' W 095°05'0 0.0
2017-Sep-13 03:53N 29°46' W 095°05'0 0.0
2017-Sep-13 03:26N 29°46' W 095°05'0 0.0
2017-Sep-13 02:56N 29°46' W 095°05'0 0.0
2017-Sep-13 02:23N 29°46' W 095°05'0 0.0
2017-Sep-13 01:53N 29°46' W 095°05'0 0.0
2017-Sep-13 01:26N 29°46' W 095°05'0 0.0
2017-Sep-13 00:56N 29°46' W 095°05'0 0.0
2017-Sep-13 00:26N 29°46' W 095°05'0 0.0
2017-Sep-12 23:59N 29°46' W 095°05'0 0.0
2017-Sep-12 18:17N 29°46' W 095°05'0 0.0
2017-Sep-12 14:05N 29°46' W 095°05'0 0.0
2017-Sep-12 13:50N 29°46' W 095°05'0 0.0
2017-Sep-12 13:29N 29°46' W 095°05'0 0.0
2017-Sep-12 13:00N 29°46' W 095°05'0 0.0
2017-Sep-12 12:30N 29°46' W 095°05'0 0.0
2017-Sep-12 12:00N 29°46' W 095°05'0 0.0
2017-Sep-12 11:30N 29°46' W 095°05'0 0.0
2017-Sep-12 10:59N 29°46' W 095°05'2 3.9
2017-Sep-12 10:28N 29°45' W 095°06'3 6.0
2017-Sep-12 10:00N 29°44' W 095°09'4 5.5
2017-Sep-12 09:21N 29°44' W 095°13'0 0.3
2017-Sep-12 08:48N 29°44' W 095°13'2 0.1
2017-Sep-10 22:05N 29°45' W 095°11'1 4.7
2017-Sep-10 21:52N 29°45' W 095°10'2 4.2
2017-Sep-10 21:18N 29°44' W 095°07'1 4.7
2017-Sep-10 21:00N 29°45' W 095°06'2 3.7
2017-Sep-10 20:29N 29°46' W 095°05'1 1.4
2017-Sep-10 19:51N 29°47' W 095°05'1 1.3
2017-Sep-10 19:00N 29°47' W 095°06'1 2.2
2017-Sep-10 18:28N 29°47' W 095°04'3 6.3
2017-Sep-10 17:59N 29°45' W 095°06'0 0.1
2017-Sep-10 17:25N 29°45' W 095°07'0 0.0
2017-Sep-10 16:55N 29°45' W 095°07'0 0.0
2017-Sep-10 16:28N 29°45' W 095°07'0 0.0
2017-Sep-10 15:58N 29°45' W 095°07'0 0.0
2017-Sep-10 15:28N 29°45' W 095°07'0 0.0
2017-Sep-10 14:58N 29°45' W 095°07'3 0.1
2017-Sep-09 00:04N 29°47' W 095°06'0 4.7
2017-Sep-09 00:00N 29°47' W 095°05'1 2.7
2017-Sep-08 23:30N 29°46' W 095°05'4 5.6
2017-Sep-08 22:53N 29°44' W 095°09'1 2.4
2017-Sep-08 22:29N 29°44' W 095°10'0 0.0
2017-Sep-08 21:30N 29°44' W 095°10'3 5.8
2017-Sep-08 21:00N 29°45' W 095°06'3 5.5
2017-Sep-08 20:29N 29°47' W 095°05'1 0.7
2017-Sep-08 18:54N 29°47' W 095°06'1 1.8
2017-Sep-08 18:18N 29°47' W 095°05'2 1.1
2017-Sep-08 16:46N 29°45' W 095°06'2 0.1
2017-Sep-07 19:25N 29°47' W 095°06'1 2.0
2017-Sep-07 18:44N 29°46' W 095°05'2 7.4
2017-Sep-07 18:29N 29°45' W 095°06'3 5.8
2017-Sep-07 18:00N 29°44' W 095°10'0 0.1
2017-Sep-07 17:31N 29°45' W 095°10'2 2.7
2017-Sep-07 16:55N 29°44' W 095°08'1 3.0
2017-Sep-07 16:29N 29°45' W 095°06'3 0.1
2017-Sep-06 00:08N 29°47' W 095°06'1 4.9
2017-Sep-05 23:59N 29°47' W 095°05'1 1.1
2017-Sep-05 23:29N 29°47' W 095°04'3 6.2
2017-Sep-05 22:59N 29°45' W 095°06'0 0.0
2017-Sep-05 21:11N 29°45' W 095°06'0 2.1
2017-Sep-05 21:00N 29°45' W 095°06'0 0.0
2017-Sep-05 15:14N 29°44' W 095°07'1 5.2
2017-Sep-05 14:58N 29°44' W 095°08'1 1.1
2017-Sep-05 13:35N 29°45' W 095°07'0 0.0
2017-Sep-05 13:14N 29°45' W 095°07'0 0.1
2017-Sep-05 12:59N 29°45' W 095°06'1 2.4
2017-Sep-05 12:29N 29°45' W 095°06'  

Dump ship's entire track history